createdAt,value
2019-02-11T00:00:59.320Z,96961.44
2019-02-11T00:03:26.742Z,96958.26
2019-02-11T00:05:54.210Z,96959.45
2019-02-11T00:08:21.619Z,96968.03
2019-02-11T00:10:49.015Z,96979.02
2019-02-11T00:13:16.636Z,96987.87
2019-02-11T00:15:44.055Z,96979.14
2019-02-11T00:18:11.563Z,96969.98
2019-02-11T00:20:39.098Z,96977.53
2019-02-11T00:23:06.487Z,96980.03
2019-02-11T00:25:33.913Z,96977.31
2019-02-11T00:28:01.319Z,96977.52
2019-02-11T00:30:28.751Z,96982.19
2019-02-11T00:32:56.228Z,96991.93
2019-02-11T00:35:23.569Z,96992.06
2019-02-11T00:37:50.987Z,97011.52
2019-02-11T00:40:18.416Z,97029.36
2019-02-11T00:42:45.804Z,97042.18
2019-02-11T00:45:13.223Z,97053.34
2019-02-11T00:47:40.628Z,97046.70
2019-02-11T00:50:08.020Z,97037.84
2019-02-11T00:52:35.425Z,97048.20
2019-02-11T00:55:02.936Z,97051.48
2019-02-11T00:57:30.449Z,97052.59
2019-02-11T00:59:57.830Z,97052.09
2019-02-11T01:02:25.299Z,97060.80
2019-02-11T01:04:52.715Z,97064.83
2019-02-11T01:07:20.099Z,97082.41
2019-02-11T01:09:48.039Z,97095.45
2019-02-11T01:12:15.449Z,97085.70
2019-02-11T01:14:42.957Z,97081.20
2019-02-11T01:17:10.342Z,97078.65
2019-02-11T01:19:37.751Z,97085.25
2019-02-11T01:22:05.236Z,97110.34
2019-02-11T01:24:32.648Z,97103.13
2019-02-11T01:27:00.065Z,97099.63
2019-02-11T01:29:27.447Z,97101.34
2019-02-11T01:31:54.840Z,97105.59
2019-02-11T01:34:22.519Z,97120.27
2019-02-11T01:36:49.913Z,97108.45
2019-02-11T01:39:17.324Z,97095.52
2019-02-11T01:41:44.708Z,97091.61
2019-02-11T01:44:12.135Z,97089.91
2019-02-11T01:46:39.698Z,97090.08
2019-02-11T01:49:07.081Z,97086.99
2019-02-11T01:51:34.502Z,97085.73
2019-02-11T01:54:01.898Z,97082.13
2019-02-11T01:56:29.342Z,97090.87
2019-02-11T01:58:56.731Z,97096.34
2019-02-11T02:01:24.131Z,97120.48
2019-02-11T02:03:51.547Z,97132.03
2019-02-11T02:06:18.941Z,97141.95
2019-02-11T02:08:46.347Z,97154.92
2019-02-11T02:11:13.917Z,97152.66
2019-02-11T02:13:44.827Z,97155.88
2019-02-11T02:16:08.765Z,97156.93
2019-02-11T02:18:36.149Z,97153.16
2019-02-11T02:21:03.888Z,97150.45
2019-02-11T02:23:31.279Z,97138.00
2019-02-11T02:25:58.710Z,97143.69
2019-02-11T02:28:26.131Z,97151.88
2019-02-11T02:30:53.520Z,97140.08
2019-02-11T02:33:20.922Z,97142.52
2019-02-11T02:35:48.346Z,97148.70
2019-02-11T02:38:16.089Z,97147.38
2019-02-11T02:40:43.492Z,97142.74
2019-02-11T02:43:10.899Z,97146.74
2019-02-11T02:45:38.368Z,97154.20
2019-02-11T02:48:05.789Z,97154.12
2019-02-11T02:50:33.201Z,97143.47
2019-02-11T02:53:00.613Z,97156.03
2019-02-11T02:55:28.210Z,97148.00
2019-02-11T02:57:55.658Z,97139.84
2019-02-11T03:00:23.041Z,97152.50
2019-02-11T03:02:50.436Z,97150.82
2019-02-11T03:05:17.837Z,97140.00
2019-02-11T03:07:45.232Z,97138.52
2019-02-11T03:10:12.749Z,97142.97
2019-02-11T03:12:40.154Z,97148.95
2019-02-11T03:15:07.639Z,97150.24
2019-02-11T03:17:35.076Z,97162.99
2019-02-11T03:20:02.479Z,97168.26
2019-02-11T03:22:29.875Z,97179.81
2019-02-11T03:24:58.085Z,97182.61
2019-02-11T03:27:25.480Z,97186.80
2019-02-11T03:29:52.927Z,97183.70
2019-02-11T03:32:20.326Z,97198.77
2019-02-11T03:34:47.720Z,97200.39
2019-02-11T03:37:15.105Z,97202.45
2019-02-11T03:39:42.538Z,97200.64
2019-02-11T03:42:09.915Z,97201.61
2019-02-11T03:44:37.345Z,97200.61
2019-02-11T03:47:04.822Z,97205.25
2019-02-11T03:49:32.225Z,97206.29
2019-02-11T03:51:59.722Z,97205.25
2019-02-11T03:54:27.103Z,97203.66
2019-02-11T03:56:54.509Z,97199.89
2019-02-11T03:59:22.091Z,97192.61
2019-02-11T04:01:49.475Z,97206.72
2019-02-11T04:04:17.381Z,97198.30
2019-02-11T04:06:44.772Z,97205.25
2019-02-11T04:09:12.329Z,97176.48
2019-02-11T04:11:39.719Z,97198.03
2019-02-11T04:14:07.131Z,97191.30
2019-02-11T04:16:34.546Z,97200.33
2019-02-11T04:19:01.952Z,97200.04
2019-02-11T04:21:29.415Z,97214.56
2019-02-11T04:23:56.793Z,97209.20
2019-02-11T04:26:24.191Z,97223.21
2019-02-11T04:28:51.783Z,97232.44
2019-02-11T04:31:19.169Z,97244.77
2019-02-11T04:33:46.575Z,97243.72
2019-02-11T04:36:14.078Z,97254.69
2019-02-11T04:38:41.524Z,97264.34
2019-02-11T04:41:09.706Z,97267.35
2019-02-11T04:43:37.124Z,97259.98
2019-02-11T04:46:04.537Z,97271.16
2019-02-11T04:48:31.932Z,97267.80
2019-02-11T04:50:59.410Z,97263.20
2019-02-11T04:53:26.851Z,97254.38
2019-02-11T04:55:54.483Z,97248.67
2019-02-11T04:58:21.886Z,97262.24
2019-02-11T05:00:49.268Z,97278.31
2019-02-11T05:03:16.695Z,97292.72
2019-02-11T05:05:44.874Z,97290.05
2019-02-11T05:08:12.253Z,97283.55
2019-02-11T05:10:39.641Z,97285.67
2019-02-11T05:13:07.047Z,97290.77
2019-02-11T05:15:34.440Z,97312.17
2019-02-11T05:18:01.962Z,97308.97
2019-02-11T05:20:29.417Z,97307.44
2019-02-11T05:22:57.307Z,97317.40
2019-02-11T05:25:24.704Z,97310.20
2019-02-11T05:27:52.397Z,97332.27
2019-02-11T05:30:19.833Z,97313.05
2019-02-11T05:32:47.320Z,97320.25
2019-02-11T05:35:14.723Z,97324.22
2019-02-11T05:37:44.061Z,97327.50
2019-02-11T05:40:09.583Z,97335.98
2019-02-11T05:42:37.023Z,97368.52
2019-02-11T05:45:04.401Z,97386.61
2019-02-11T05:47:31.847Z,97382.03
2019-02-11T05:49:59.269Z,97378.14
2019-02-11T05:52:26.815Z,97372.41
2019-02-11T05:54:54.208Z,97368.14
2019-02-11T05:57:22.175Z,97368.76
2019-02-11T05:59:49.594Z,97364.98
2019-02-11T06:02:16.991Z,97365.82
2019-02-11T06:04:44.378Z,97366.38
2019-02-11T06:07:11.813Z,97380.08
2019-02-11T06:09:39.274Z,97374.43
2019-02-11T06:12:06.662Z,97366.41
2019-02-11T06:14:34.060Z,97372.20
2019-02-11T06:17:01.466Z,97389.09
2019-02-11T06:19:28.899Z,97388.22
2019-02-11T06:21:56.292Z,97383.62
2019-02-11T06:24:23.693Z,97378.05
2019-02-11T06:26:51.088Z,97392.71
2019-02-11T06:29:19.105Z,97387.90
2019-02-11T06:31:45.907Z,97399.38
2019-02-11T06:34:13.318Z,97398.38
2019-02-11T06:36:40.790Z,97401.80
2019-02-11T06:39:08.195Z,97409.08
2019-02-11T06:41:35.727Z,97410.80
2019-02-11T06:44:04.129Z,97420.92
2019-02-11T06:46:31.531Z,97427.08
2019-02-11T06:48:58.923Z,97430.98
2019-02-11T06:51:26.323Z,97442.30
2019-02-11T06:53:53.770Z,97459.22
2019-02-11T06:56:21.330Z,97461.85
2019-02-11T06:58:49.604Z,97473.72
2019-02-11T07:01:17.019Z,97477.78
2019-02-11T07:03:44.994Z,97485.27
2019-02-11T07:06:12.440Z,97494.89
2019-02-11T07:08:39.821Z,97489.01
2019-02-11T07:11:07.231Z,97492.59
2019-02-11T07:13:34.643Z,97498.63
2019-02-11T07:16:02.032Z,97501.25
2019-02-11T07:18:29.437Z,97516.79
2019-02-11T07:20:57.046Z,97513.66
2019-02-11T07:23:24.434Z,97527.48
2019-02-11T07:25:51.834Z,97525.12
2019-02-11T07:28:19.231Z,97522.38
2019-02-11T07:30:46.611Z,97535.52
2019-02-11T07:33:14.016Z,97540.14
2019-02-11T07:35:41.418Z,97546.13
2019-02-11T07:38:09.804Z,97554.83
2019-02-11T07:40:37.218Z,97564.94
2019-02-11T07:43:05.112Z,97553.80
2019-02-11T07:45:37.482Z,97555.55
2019-02-11T07:48:04.943Z,97559.02
2019-02-11T07:50:32.503Z,97566.31
2019-02-11T07:52:59.930Z,97577.87
2019-02-11T07:55:27.527Z,97584.95
2019-02-11T07:57:54.981Z,97590.50
2019-02-11T08:00:22.643Z,97588.09
2019-02-11T08:02:50.059Z,97587.42
2019-02-11T08:05:17.440Z,97587.00
2019-02-11T08:07:44.844Z,97594.61
2019-02-11T08:10:12.240Z,97598.58
2019-02-11T08:12:39.650Z,97602.04
2019-02-11T08:15:07.753Z,97601.02
2019-02-11T08:17:35.349Z,97592.59
2019-02-11T08:20:02.811Z,97587.77
2019-02-11T08:22:30.252Z,97597.83
2019-02-11T08:24:57.734Z,97604.64
2019-02-11T08:27:25.181Z,97601.36
2019-02-11T08:29:52.564Z,97605.22
2019-02-11T08:32:19.963Z,97600.42
2019-02-11T08:34:47.384Z,97601.37
2019-02-11T08:37:14.788Z,97603.23
2019-02-11T08:39:42.200Z,97604.16
2019-02-11T08:42:09.606Z,97604.08
2019-02-11T08:44:37.041Z,97606.38
2019-02-11T08:47:05.025Z,97613.63
2019-02-11T08:49:32.500Z,97621.50
2019-02-11T08:51:59.907Z,97618.55
2019-02-11T08:54:27.422Z,97626.84
2019-02-11T08:56:54.805Z,97623.89
2019-02-11T08:59:22.663Z,97628.91
2019-02-11T09:01:50.762Z,97634.31
2019-02-11T09:04:19.157Z,97644.52
2019-02-11T09:06:45.550Z,97648.54
2019-02-11T09:09:12.964Z,97655.11
2019-02-11T09:11:40.363Z,97653.53
2019-02-11T09:14:07.819Z,97655.11
2019-02-11T09:16:35.291Z,97658.81
2019-02-11T09:19:02.716Z,97659.11
2019-02-11T09:21:30.164Z,97662.25
2019-02-11T09:23:57.557Z,97671.22
2019-02-11T09:26:24.962Z,97670.10
2019-02-11T09:28:52.544Z,97669.08
2019-02-11T09:31:19.939Z,97677.48
2019-02-11T09:33:47.333Z,97676.66
2019-02-11T09:36:14.737Z,97682.96
2019-02-11T09:38:42.126Z,97682.86
2019-02-11T09:41:09.538Z,97679.13
2019-02-11T09:43:36.967Z,97694.87
2019-02-11T09:46:04.404Z,97700.40
2019-02-11T09:48:31.983Z,97705.00
2019-02-11T09:50:59.379Z,97714.94
2019-02-11T09:53:26.773Z,97714.01
2019-02-11T09:55:54.167Z,97727.97
2019-02-11T09:58:22.234Z,97730.02
2019-02-11T10:00:49.629Z,97735.10
2019-02-11T10:03:17.023Z,97730.87
2019-02-11T10:05:44.550Z,97738.02
2019-02-11T10:08:12.144Z,97745.91
2019-02-11T10:10:39.572Z,97744.39
2019-02-11T10:13:06.944Z,97760.09
2019-02-11T10:15:34.359Z,97762.16
2019-02-11T10:18:01.754Z,97768.37
2019-02-11T10:20:29.147Z,97765.85
2019-02-11T10:22:56.536Z,97771.19
2019-02-11T10:25:24.190Z,97775.89
2019-02-11T10:27:52.602Z,97783.22
2019-02-11T10:30:20.367Z,97780.70
2019-02-11T10:32:47.767Z,97788.74
2019-02-11T10:35:15.168Z,97789.05
2019-02-11T10:37:42.550Z,97783.85
2019-02-11T10:40:09.948Z,97794.48
2019-02-11T10:42:37.483Z,97796.61
2019-02-11T10:45:04.910Z,97797.81
2019-02-11T10:47:32.325Z,97794.11
2019-02-11T10:49:59.724Z,97802.22
2019-02-11T10:52:27.255Z,97801.75
2019-02-11T10:54:55.660Z,97808.07
2019-02-11T10:57:23.049Z,97810.70
2019-02-11T10:59:50.508Z,97817.63
2019-02-11T11:02:18.524Z,97812.58
2019-02-11T11:04:46.013Z,97817.06
2019-02-11T11:07:13.405Z,97824.09
2019-02-11T11:09:41.807Z,97825.47
2019-02-11T11:12:09.331Z,97826.88
2019-02-11T11:14:36.705Z,97831.52
2019-02-11T11:17:04.121Z,97831.22
2019-02-11T11:19:31.511Z,97840.37
2019-02-11T11:21:59.117Z,97838.44
2019-02-11T11:24:26.515Z,97843.39
2019-02-11T11:26:53.971Z,97846.58
2019-02-11T11:29:21.358Z,97843.42
2019-02-11T11:31:48.755Z,97847.33
2019-02-11T11:34:16.979Z,97849.69
2019-02-11T11:36:44.413Z,97850.95
2019-02-11T11:39:21.754Z,97848.17
2019-02-11T11:41:49.264Z,97846.86
2019-02-11T11:44:17.303Z,97849.11
2019-02-11T11:46:47.137Z,97850.69
2019-02-11T11:49:12.236Z,97842.38
2019-02-11T11:51:40.673Z,97840.02
2019-02-11T11:54:07.045Z,97841.36
2019-02-11T11:56:34.522Z,97833.28
2019-02-11T11:59:01.994Z,97841.11
2019-02-11T12:01:29.451Z,97838.17
2019-02-11T12:03:56.870Z,97843.30
2019-02-11T12:06:25.723Z,97838.69
2019-02-11T12:08:51.719Z,97844.47
2019-02-11T12:11:19.586Z,97847.12
2019-02-11T12:13:47.179Z,97848.38
2019-02-11T12:16:14.599Z,97852.28
2019-02-11T12:18:42.797Z,97851.89
2019-02-11T12:21:10.197Z,97844.77
2019-02-11T12:23:37.599Z,97851.79
2019-02-11T12:26:05.045Z,97850.06
2019-02-11T12:28:32.902Z,97845.66
2019-02-11T12:31:00.717Z,97846.16
2019-02-11T12:33:28.115Z,97848.34
2019-02-11T12:35:55.533Z,97849.74
2019-02-11T12:38:23.138Z,97855.66
2019-02-11T12:40:50.644Z,97854.70
2019-02-11T12:43:18.061Z,97853.94
2019-02-11T12:45:45.510Z,97851.46
2019-02-11T12:48:12.919Z,97853.47
2019-02-11T12:50:40.371Z,97858.60
2019-02-11T12:53:07.803Z,97858.66
2019-02-11T12:55:34.746Z,97852.67
2019-02-11T12:58:01.724Z,97844.56
2019-02-11T13:00:28.687Z,97840.61
2019-02-11T13:02:55.628Z,97844.64
2019-02-11T13:05:32.270Z,97845.27
2019-02-11T13:07:50.188Z,97839.68
2019-02-11T13:10:17.639Z,97849.41
2019-02-11T13:12:45.163Z,97845.74
2019-02-11T13:15:12.542Z,97847.73
2019-02-11T13:17:40.019Z,97850.15
2019-02-11T13:20:10.582Z,97853.45
2019-02-11T13:22:34.925Z,97861.50
2019-02-11T13:25:07.200Z,97863.78
2019-02-11T13:27:29.782Z,97867.30
2019-02-11T13:29:57.285Z,97876.85
2019-02-11T13:32:24.699Z,97875.47
2019-02-11T13:34:52.223Z,97877.48
2019-02-11T13:37:19.695Z,97884.78
2019-02-11T13:39:47.095Z,97882.92
2019-02-11T13:42:14.492Z,97893.14
2019-02-11T13:44:41.942Z,97889.27
2019-02-11T13:47:09.334Z,97888.34
2019-02-11T13:49:36.764Z,97887.36
2019-02-11T13:52:04.187Z,97879.33
2019-02-11T13:54:31.592Z,97879.01
2019-02-11T13:56:59.034Z,97882.41
2019-02-11T13:59:27.143Z,97893.95
2019-02-11T14:01:54.544Z,97893.46
2019-02-11T14:04:21.999Z,97893.93
2019-02-11T14:06:49.410Z,97898.03
2019-02-11T14:09:16.824Z,97897.27
2019-02-11T14:11:44.241Z,97906.27
2019-02-11T14:14:11.684Z,97901.77
2019-02-11T14:16:39.118Z,97904.31
2019-02-11T14:19:06.504Z,97905.59
2019-02-11T14:21:34.777Z,97916.42
2019-02-11T14:24:02.162Z,97925.84
2019-02-11T14:26:29.562Z,97932.30
2019-02-11T14:28:57.054Z,97932.80
2019-02-11T14:31:25.093Z,97943.40
2019-02-11T14:33:52.517Z,97934.78
2019-02-11T14:36:20.086Z,97932.05
2019-02-11T14:38:48.060Z,97942.32
2019-02-11T14:41:15.499Z,97942.33
2019-02-11T14:43:43.085Z,97949.94
2019-02-11T14:46:10.513Z,97950.73
2019-02-11T14:48:37.985Z,97964.03
2019-02-11T14:51:06.205Z,97954.94
2019-02-11T14:53:33.597Z,97953.42
2019-02-11T14:56:00.987Z,97949.98
2019-02-11T14:58:28.411Z,97951.72
2019-02-11T15:00:55.840Z,97953.16
2019-02-11T15:03:23.324Z,97960.97
2019-02-11T15:05:50.754Z,97968.47
2019-02-11T15:08:18.150Z,97965.16
2019-02-11T15:10:45.594Z,97966.06
2019-02-11T15:13:12.994Z,97975.25
2019-02-11T15:15:40.471Z,97973.70
2019-02-11T15:18:07.863Z,97971.42
2019-02-11T15:20:35.309Z,97971.48
2019-02-11T15:23:02.745Z,97977.88
2019-02-11T15:25:30.315Z,97975.89
2019-02-11T15:27:57.709Z,97977.05
2019-02-11T15:30:25.133Z,97982.98
2019-02-11T15:32:52.551Z,97982.47
2019-02-11T15:35:20.069Z,97985.28
2019-02-11T15:37:47.494Z,97991.38
2019-02-11T15:40:16.737Z,97991.77
2019-02-11T15:42:44.143Z,97991.00
2019-02-11T15:45:11.579Z,97985.62
2019-02-11T15:47:38.992Z,97982.76
2019-02-11T15:50:07.135Z,97986.12
2019-02-11T15:52:34.566Z,97987.12
2019-02-11T15:55:02.128Z,97992.03
2019-02-11T15:57:29.542Z,97993.45
2019-02-11T15:59:56.930Z,97997.54
2019-02-11T16:02:24.716Z,97999.69
2019-02-11T16:04:52.235Z,98011.41
2019-02-11T16:07:19.651Z,98014.02
2019-02-11T16:09:47.332Z,98011.95
2019-02-11T16:12:14.815Z,98014.83
2019-02-11T16:14:42.275Z,98013.70
2019-02-11T16:17:09.690Z,98025.84
2019-02-11T16:19:37.153Z,98022.66
2019-02-11T16:22:04.591Z,98028.22
2019-02-11T16:24:32.003Z,98038.91
2019-02-11T16:26:59.395Z,98049.81
2019-02-11T16:29:26.802Z,98048.05
2019-02-11T16:32:00.542Z,98052.41
2019-02-11T16:34:21.638Z,98056.47
2019-02-11T16:36:49.061Z,98057.45
2019-02-11T16:39:18.302Z,98049.09
2019-02-11T16:41:45.721Z,98048.31
2019-02-11T16:44:14.195Z,98053.48
2019-02-11T16:46:41.577Z,98068.05
2019-02-11T16:49:08.971Z,98078.19
2019-02-11T16:51:36.433Z,98080.19
2019-02-11T16:54:03.716Z,98092.82
2019-02-11T16:56:30.466Z,98084.09
2019-02-11T16:58:57.427Z,98088.78
2019-02-11T17:01:24.368Z,98098.98
2019-02-11T17:03:51.294Z,98101.94
2019-02-11T17:06:18.292Z,98109.92
2019-02-11T17:08:45.223Z,98116.22
2019-02-11T17:11:12.321Z,98116.10
2019-02-11T17:13:39.247Z,98120.59
2019-02-11T17:16:06.178Z,98132.38
2019-02-11T17:18:33.154Z,98137.55
2019-02-11T17:21:00.728Z,98145.36
2019-02-11T17:23:27.674Z,98145.72
2019-02-11T17:25:54.607Z,98150.01
2019-02-11T17:28:21.660Z,98152.05
2019-02-11T17:30:48.638Z,98145.55
2019-02-11T17:33:15.661Z,98156.22
2019-02-11T17:35:42.611Z,98157.63
2019-02-11T17:38:09.589Z,98161.56
2019-02-11T17:40:36.570Z,98170.77
2019-02-11T17:43:03.547Z,98181.98
2019-02-11T17:45:30.473Z,98188.04
2019-02-11T17:47:57.436Z,98190.55
2019-02-11T17:50:24.378Z,98192.53
2019-02-11T17:52:51.744Z,98194.49
2019-02-11T17:55:19.234Z,98202.69
2019-02-11T17:57:46.191Z,98198.06
2019-02-11T18:00:22.248Z,98200.11
2019-02-11T18:02:49.548Z,98213.55
2019-02-11T18:05:16.648Z,98211.89
2019-02-11T18:07:43.677Z,98221.03
2019-02-11T18:10:10.663Z,98226.30
2019-02-11T18:12:38.058Z,98224.30
2019-02-11T18:15:05.563Z,98228.08
2019-02-11T18:17:32.562Z,98229.78
2019-02-11T18:19:59.964Z,98236.61
2019-02-11T18:22:29.078Z,98228.75
2019-02-11T18:24:56.636Z,98236.38
2019-02-11T18:27:24.151Z,98238.78
2019-02-11T18:29:51.539Z,98234.16
2019-02-11T18:32:18.938Z,98230.52
2019-02-11T18:34:47.568Z,98231.25
2019-02-11T18:37:13.443Z,98226.87
2019-02-11T18:39:40.388Z,98234.47
2019-02-11T18:42:07.438Z,98241.51
2019-02-11T18:44:34.432Z,98242.19
2019-02-11T18:47:01.358Z,98250.94
2019-02-11T18:49:34.390Z,98254.87
2019-02-11T18:51:56.220Z,98256.25
2019-02-11T18:54:23.811Z,98266.73
2019-02-11T18:56:51.261Z,98268.51
2019-02-11T18:59:24.503Z,98277.22
2019-02-11T19:01:46.109Z,98274.58
2019-02-11T19:04:15.542Z,98284.42
2019-02-11T19:06:41.115Z,98288.61
2019-02-11T19:09:08.547Z,98286.59
2019-02-11T19:11:36.051Z,98293.25
2019-02-11T19:14:04.281Z,98294.94
2019-02-11T19:16:31.666Z,98294.00
2019-02-11T19:18:59.306Z,98295.38
2019-02-11T19:21:26.723Z,98299.14
2019-02-11T19:23:54.468Z,98299.41
2019-02-11T19:26:21.863Z,98304.73
2019-02-11T19:28:49.324Z,98309.36
2019-02-11T19:31:16.702Z,98314.88
2019-02-11T19:33:44.165Z,98315.74
2019-02-11T19:36:11.579Z,98323.09
2019-02-11T19:38:39.110Z,98321.74
2019-02-11T19:41:06.507Z,98320.81
2019-02-11T19:43:34.041Z,98320.09
2019-02-11T19:46:01.443Z,98321.05
2019-02-11T19:48:28.892Z,98323.61
2019-02-11T19:50:56.309Z,98318.52
2019-02-11T19:53:23.768Z,98313.62
2019-02-11T19:55:51.169Z,98321.20
2019-02-11T19:58:18.679Z,98330.38
2019-02-11T20:00:46.060Z,98331.50
2019-02-11T20:03:13.555Z,98330.17
2019-02-11T20:05:40.988Z,98335.02
2019-02-11T20:08:08.377Z,98336.38
2019-02-11T20:10:35.779Z,98340.17
2019-02-11T20:13:03.274Z,98336.93
2019-02-11T20:15:30.766Z,98334.50
2019-02-11T20:17:58.157Z,98347.50
2019-02-11T20:20:25.684Z,98346.50
2019-02-11T20:22:53.091Z,98348.61
2019-02-11T20:25:20.548Z,98354.55
2019-02-11T20:27:48.017Z,98366.80
2019-02-11T20:30:17.479Z,98375.39
2019-02-11T20:32:44.871Z,98371.95
2019-02-11T20:35:12.280Z,98383.77
2019-02-11T20:37:39.672Z,98389.84
2019-02-11T20:40:10.436Z,98395.45
2019-02-11T20:42:37.858Z,98408.42
2019-02-11T20:45:09.214Z,98410.55
2019-02-11T20:47:36.666Z,98403.48
2019-02-11T20:50:09.323Z,98406.39
2019-02-11T20:52:31.589Z,98400.63
2019-02-11T20:54:58.991Z,98405.86
2019-02-11T20:57:26.402Z,98412.86
2019-02-11T20:59:53.800Z,98415.11
2019-02-11T21:02:21.194Z,98414.66
2019-02-11T21:04:48.590Z,98415.98
2019-02-11T21:07:15.990Z,98430.28
2019-02-11T21:09:43.538Z,98436.42
2019-02-11T21:12:11.010Z,98441.88
2019-02-11T21:14:38.417Z,98445.45
2019-02-11T21:17:05.819Z,98456.63
2019-02-11T21:19:33.268Z,98465.36
2019-02-11T21:22:00.750Z,98464.56
2019-02-11T21:24:28.145Z,98455.39
2019-02-11T21:26:55.557Z,98463.12
2019-02-11T21:29:22.953Z,98466.20
2019-02-11T21:31:50.381Z,98466.11
2019-02-11T21:34:17.790Z,98468.60
2019-02-11T21:36:45.307Z,98462.00
2019-02-11T21:39:12.729Z,98450.27
2019-02-11T21:41:40.122Z,98446.75
2019-02-11T21:44:07.746Z,98445.06
2019-02-11T21:46:35.342Z,98444.19
2019-02-11T21:49:02.761Z,98438.09
2019-02-11T21:51:30.359Z,98432.47
2019-02-11T21:53:57.858Z,98438.68
2019-02-11T21:56:25.474Z,98440.89
2019-02-11T21:58:52.858Z,98439.48
2019-02-11T22:01:20.256Z,98440.80
2019-02-11T22:03:47.850Z,98443.90
2019-02-11T22:06:15.353Z,98450.81
2019-02-11T22:08:42.762Z,98467.30
2019-02-11T22:11:10.226Z,98478.13
2019-02-11T22:13:37.708Z,98475.30
2019-02-11T22:16:05.116Z,98466.80
2019-02-11T22:18:32.657Z,98470.09
2019-02-11T22:21:00.030Z,98471.13
2019-02-11T22:23:27.835Z,98462.08
2019-02-11T22:25:55.242Z,98459.55
2019-02-11T22:28:22.632Z,98452.23
2019-02-11T22:30:50.071Z,98453.52
2019-02-11T22:33:17.453Z,98446.91
2019-02-11T22:35:44.850Z,98454.19
2019-02-11T22:38:12.238Z,98448.45
2019-02-11T22:40:39.627Z,98447.03
2019-02-11T22:43:07.049Z,98450.88
2019-02-11T22:45:34.739Z,98455.66
2019-02-11T22:48:02.234Z,98453.46
2019-02-11T22:50:29.629Z,98459.16
2019-02-11T22:52:57.030Z,98464.38
2019-02-11T22:55:24.422Z,98468.34
2019-02-11T22:57:51.827Z,98466.25
2019-02-11T23:00:23.740Z,98478.01
2019-02-11T23:02:51.144Z,98488.87
2019-02-11T23:05:18.615Z,98491.46
2019-02-11T23:07:46.011Z,98496.09
2019-02-11T23:10:13.422Z,98505.08
2019-02-11T23:12:40.953Z,98502.80
2019-02-11T23:15:08.329Z,98507.47
2019-02-11T23:17:35.769Z,98512.19
2019-02-11T23:20:03.172Z,98519.91
2019-02-11T23:22:30.562Z,98527.02
2019-02-11T23:24:58.035Z,98531.72
2019-02-11T23:27:25.419Z,98524.33
2019-02-11T23:29:52.950Z,98525.15
2019-02-11T23:32:20.407Z,98509.38
2019-02-11T23:34:47.806Z,98519.15
2019-02-11T23:37:15.191Z,98521.85
2019-02-11T23:39:42.721Z,98518.50
2019-02-11T23:42:10.095Z,98523.78
2019-02-11T23:44:37.498Z,98528.06
2019-02-11T23:47:04.947Z,98523.93
2019-02-11T23:49:32.351Z,98520.17
2019-02-11T23:51:59.748Z,98528.35
2019-02-11T23:54:27.318Z,98526.06
2019-02-11T23:56:54.719Z,98519.59
2019-02-11T23:59:22.233Z,98527.30
